Time;durP1;ratioP1;P1;durP2;ratioP2;P2;SDS_P1;SDS_P2;PMS_P1;PMS_P2;Temp;Humidity;BMP_temperature;BMP_pressure;BME280_temperature;BME280_humidity;BME280_pressure;Samples;Min_cycle;Max_cycle;Signal;HPM_P1;HPM_P2
2022/09/29 00:01:36;;;;;;;;;;;;;;;7.57;81.77;99933.16;5050389;28;20383;-59
2022/09/29 00:04:01;;;;;;;;;;;;;;;7.57;81.82;99929.69;5045595;28;19921;-59
2022/09/29 00:06:26;;;;;;;;;;;;;;;7.55;82.10;99937.78;5043071;28;20422;-59
2022/09/29 00:08:51;;;;;;;;;;;;;;;7.53;81.90;99931.84;5047160;28;19924;-59
2022/09/29 00:11:17;;;;;;;;;;;;;;;7.53;82.18;99928.38;5045839;28;20455;-58
2022/09/29 00:13:43;;;;;;;;;;;;;;;7.53;82.16;99931.84;5043860;28;19921;-59
2022/09/29 00:16:09;;;;;;;;;;;;;;;7.53;82.17;99931.84;5041938;28;19924;-59
2022/09/29 00:18:34;;;;;;;;;;;;;;;7.52;82.12;99932.00;5042860;28;19924;-59
2022/09/29 00:21:03;;;;;;;;;;;;;;;7.52;82.32;99932.00;5047348;28;21228;-58
2022/09/29 00:23:29;;;;;;;;;;;;;;;7.53;82.17;99933.66;5045551;28;19928;-57
2022/09/29 00:25:58;;;;;;;;;;;;;;;7.54;82.24;99927.38;5043170;28;20342;-58
2022/09/29 00:28:23;;;;;;;;;;;;;;;7.54;82.26;99930.84;5040072;28;19921;-59
2022/09/29 00:30:48;;;;;;;;;;;;;;;7.53;82.48;99928.38;5047587;28;20550;-59
2022/09/29 00:33:13;;;;;;;;;;;;;;;7.51;82.25;99930.34;5044932;28;20023;-57
2022/09/29 00:35:38;;;;;;;;;;;;;;;7.49;82.13;99927.88;5049052;28;20442;-59
2022/09/29 00:38:04;;;;;;;;;;;;;;;7.45;82.21;99929.22;5042862;28;19999;-58
2022/09/29 00:40:29;;;;;;;;;;;;;;;7.43;82.18;99926.75;5051067;28;20535;-58
2022/09/29 00:42:54;;;;;;;;;;;;;;;7.42;82.24;99921.66;5048858;28;19924;-59
2022/09/29 00:45:21;;;;;;;;;;;;;;;7.40;82.46;99929.75;5048423;28;19917;-59
2022/09/29 00:47:48;;;;;;;;;;;;;;;7.40;82.35;99921.00;5050103;28;20011;-58
2022/09/29 00:50:20;;;;;;;;;;;;;;;7.37;82.26;99929.28;5041506;28;19963;-58
2022/09/29 00:52:50;;;;;;;;;;;;;;;7.30;82.26;99936.25;5049573;28;19917;-58
2022/09/29 00:55:19;;;;;;;;;;;;;;;7.23;82.34;99924.69;5044203;28;19913;-58
2022/09/29 00:57:50;;;;;;;;;;;;;;;7.20;82.26;99928.50;5047891;28;19924;-59
2022/09/29 01:00:15;;;;;;;;;;;;;;;7.20;82.14;99931.16;5044497;28;19917;-59
2022/09/29 01:03:11;;;;;;;;;;;;;;;7.20;82.72;99925.88;5049696;28;19979;-59
2022/09/29 01:05:39;;;;;;;;;;;;;;;7.21;82.94;99926.69;5033797;28;19917;-59
2022/09/29 01:08:16;;;;;;;;;;;;;;;7.21;82.72;99926.69;5048618;28;19920;-58
2022/09/29 01:10:42;;;;;;;;;;;;;;;7.19;82.90;99921.56;5048488;28;19916;-59
2022/09/29 01:13:08;;;;;;;;;;;;;;;7.19;82.89;99918.94;5044925;28;19921;-59
2022/09/29 01:15:33;;;;;;;;;;;;;;;7.17;83.04;99918.28;5045971;28;19925;-58
2022/09/29 01:17:59;;;;;;;;;;;;;;;7.15;83.13;99918.47;5047885;28;19921;-57
2022/09/29 01:20:24;;;;;;;;;;;;;;;7.13;82.84;99915.16;5042713;28;19917;-58
2022/09/29 01:23:04;;;;;;;;;;;;;;;7.12;82.99;99918.81;5042847;28;19963;-58
2022/09/29 01:25:48;;;;;;;;;;;;;;;7.09;82.87;99918.31;5053985;28;19917;-58
2022/09/29 01:28:26;;;;;;;;;;;;;;;7.08;82.91;99924.59;5039592;28;19917;-58
2022/09/29 01:31:13;;;;;;;;;;;;;;;7.05;83.12;99928.41;5049712;28;19962;-58
2022/09/29 01:33:43;;;;;;;;;;;;;;;7.02;83.11;99923.47;5044983;28;20366;-59
2022/09/29 01:36:27;;;;;;;;;;;;;;;7.01;82.97;99926.28;5044571;28;19923;-58
2022/09/29 01:38:59;;;;;;;;;;;;;;;7.00;82.88;99930.75;5042542;28;20336;-59
2022/09/29 01:41:30;;;;;;;;;;;;;;;6.99;82.97;99925.63;5040103;28;19921;-59
2022/09/29 01:44:03;;;;;;;;;;;;;;;6.96;82.95;99929.44;5043110;28;19948;-58
2022/09/29 01:46:45;;;;;;;;;;;;;;;6.97;83.30;99927.63;5042924;28;19917;-59
2022/09/29 01:49:11;;;;;;;;;;;;;;;6.95;83.35;99937.53;5047249;28;19920;-58
2022/09/29 01:51:39;;;;;;;;;;;;;;;6.91;83.24;99934.38;5047038;28;19932;-57
2022/09/29 01:54:09;;;;;;;;;;;;;;;6.89;83.07;99932.91;5038508;28;20024;-59
2022/09/29 01:56:45;;;;;;;;;;;;;;;6.88;83.37;99931.25;5040079;28;20003;-58
2022/09/29 01:59:16;;;;;;;;;;;;;;;6.84;83.26;99928.97;5041978;28;20513;-58
2022/09/29 02:01:43;;;;;;;;;;;;;;;6.86;83.10;99928.78;5045608;28;20304;-58
2022/09/29 02:04:15;;;;;;;;;;;;;;;6.84;83.17;99930.78;5051982;28;19923;-58
2022/09/29 02:06:48;;;;;;;;;;;;;;;6.83;83.18;99924.66;5045720;28;19917;-57
2022/09/29 02:09:18;;;;;;;;;;;;;;;6.84;83.24;99936.88;5038930;28;20315;-58
2022/09/29 02:11:44;;;;;;;;;;;;;;;6.83;83.27;99929.94;5040144;28;19931;-58
2022/09/29 02:14:09;;;;;;;;;;;;;;;6.85;83.40;99935.06;5049046;28;20432;-59
2022/09/29 02:16:37;;;;;;;;;;;;;;;6.86;83.44;99927.97;5046120;28;20395;-58
2022/09/29 02:19:12;;;;;;;;;;;;;;;6.87;83.55;99930.44;5045055;28;20019;-58
2022/09/29 02:21:37;;;;;;;;;;;;;;;6.88;83.59;99931.25;5040668;28;19921;-59
2022/09/29 02:24:03;;;;;;;;;;;;;;;6.87;83.38;99924.31;5045431;28;19917;-58
2022/09/29 02:26:33;;;;;;;;;;;;;;;6.84;83.51;99930.78;5045842;28;20319;-59
2022/09/29 02:28:58;;;;;;;;;;;;;;;6.83;83.34;99931.75;5042503;28;19921;-59
2022/09/29 02:31:24;;;;;;;;;;;;;;;6.84;83.71;99938.69;5040665;28;19923;-57
2022/09/29 02:33:49;;;;;;;;;;;;;;;6.80;83.46;99937.38;5045484;28;19917;-58
2022/09/29 02:36:30;;;;;;;;;;;;;;;6.75;83.33;99943.16;5043966;28;20369;-58
2022/09/29 02:39:07;;;;;;;;;;;;;;;6.72;83.39;99942.69;5045302;28;19995;-58
2022/09/29 02:41:51;;;;;;;;;;;;;;;6.69;83.53;99935.94;5036307;28;20418;-58
2022/09/29 02:44:26;;;;;;;;;;;;;;;6.70;83.30;99939.38;5047136;28;19931;-59
2022/09/29 02:47:00;;;;;;;;;;;;;;;6.70;83.46;99940.22;5049706;28;19917;-57
2022/09/29 02:49:33;;;;;;;;;;;;;;;6.71;83.40;99938.41;5043069;28;19920;-59
2022/09/29 02:52:01;;;;;;;;;;;;;;;6.72;83.52;99937.41;5046726;28;20011;-58
2022/09/29 02:54:45;;;;;;;;;;;;;;;6.72;83.60;99945.31;5041143;28;20382;-58
2022/09/29 02:57:10;;;;;;;;;;;;;;;6.72;83.69;99940.88;5044513;28;20007;-59
2022/09/29 02:59:41;;;;;;;;;;;;;;;6.71;83.65;99941.03;5044327;28;20031;-58
2022/09/29 03:02:06;;;;;;;;;;;;;;;6.68;83.47;99939.56;5040460;28;20372;-58
2022/09/29 03:04:32;;;;;;;;;;;;;;;6.68;83.54;99941.38;5043034;28;19921;-59
2022/09/29 03:06:57;;;;;;;;;;;;;;;6.62;83.65;99940.19;5046397;28;19917;-58
2022/09/29 03:09:22;;;;;;;;;;;;;;;6.60;83.54;99936.09;5046194;28;20538;-58
2022/09/29 03:11:47;;;;;;;;;;;;;;;6.59;83.72;99937.91;5046011;28;20065;-58
2022/09/29 03:14:12;;;;;;;;;;;;;;;6.59;83.79;99947.63;5044574;28;20407;-59
2022/09/29 03:16:38;;;;;;;;;;;;;;;6.57;83.63;99946.97;5046641;28;19980;-58
2022/09/29 03:19:06;;;;;;;;;;;;;;;6.55;84.04;99943.69;5047909;28;20487;-59
2022/09/29 03:21:31;;;;;;;;;;;;;;;6.56;83.89;99947.97;5042919;28;19967;-58
2022/09/29 03:23:57;;;;;;;;;;;;;;;6.55;83.81;99941.03;5047406;28;19921;-57
2022/09/29 03:26:22;;;;;;;;;;;;;;;6.54;83.82;99945.50;5037231;28;20435;-58
2022/09/29 03:28:48;;;;;;;;;;;;;;;6.52;83.77;99944.84;5047501;28;20324;-57
2022/09/29 03:31:13;;;;;;;;;;;;;;;6.51;83.63;99940.56;5041744;28;19921;-57
2022/09/29 03:33:38;;;;;;;;;;;;;;;6.50;83.94;99938.91;5045516;28;19923;-58
2022/09/29 03:36:04;;;;;;;;;;;;;;;6.49;83.83;99940.72;5047501;28;20395;-58
2022/09/29 03:38:30;;;;;;;;;;;;;;;6.46;84.00;99933.16;5049312;28;19923;-58
2022/09/29 03:40:55;;;;;;;;;;;;;;;6.46;83.75;99937.59;5042300;28;19925;-58
2022/09/29 03:43:20;;;;;;;;;;;;;;;6.46;84.00;99930.50;5052228;28;20295;-58
2022/09/29 03:45:49;;;;;;;;;;;;;;;6.45;84.04;99942.06;5045076;28;19933;-59
2022/09/29 03:48:15;;;;;;;;;;;;;;;6.45;83.74;99943.88;5040218;28;20003;-58
2022/09/29 03:50:40;;;;;;;;;;;;;;;6.44;83.90;99934.31;5047140;28;19995;-58
2022/09/29 03:53:05;;;;;;;;;;;;;;;6.43;83.84;99948.47;5054755;28;20350;-59
2022/09/29 03:55:31;;;;;;;;;;;;;;;6.41;84.02;99935.47;5048100;28;19928;-59
2022/09/29 03:57:56;;;;;;;;;;;;;;;6.41;84.06;99939.91;5051667;28;19913;-59
2022/09/29 04:00:21;;;;;;;;;;;;;;;6.39;84.13;99944.53;5042604;28;20605;-58
2022/09/29 04:02:46;;;;;;;;;;;;;;;6.37;84.21;99944.69;5045492;28;19921;-59
2022/09/29 04:05:11;;;;;;;;;;;;;;;6.35;84.24;99951.91;5047636;28;19941;-59
2022/09/29 04:07:36;;;;;;;;;;;;;;;6.33;84.26;99948.63;5047776;28;20030;-58
2022/09/29 04:10:02;;;;;;;;;;;;;;;6.32;84.16;99941.72;5052252;28;19931;-59
2022/09/29 04:12:27;;;;;;;;;;;;;;;6.32;83.94;99938.25;5051787;28;19920;-59
2022/09/29 04:14:53;;;;;;;;;;;;;;;6.30;83.87;99951.59;5049271;28;19978;-59
2022/09/29 04:17:18;;;;;;;;;;;;;;;6.29;84.20;99949.13;5045653;28;19917;-58
2022/09/29 04:19:43;;;;;;;;;;;;;;;6.26;84.10;99957.38;5057334;28;20063;-58
2022/09/29 04:22:08;;;;;;;;;;;;;;;6.22;84.10;99956.88;5044523;28;19921;-59
2022/09/29 04:24:33;;;;;;;;;;;;;;;6.20;83.98;99961.50;5046416;28;20011;-58
2022/09/29 04:26:58;;;;;;;;;;;;;;;6.19;84.16;99959.84;5048531;28;19920;-59
2022/09/29 04:29:24;;;;;;;;;;;;;;;6.18;84.30;99963.47;5052149;28;19952;-59
2022/09/29 04:31:49;;;;;;;;;;;;;;;6.18;84.29;99964.28;5049892;28;19934;-59
2022/09/29 04:34:14;;;;;;;;;;;;;;;6.18;84.28;99960.84;5051886;28;19959;-58
2022/09/29 04:36:39;;;;;;;;;;;;;;;6.16;84.26;99963.63;5049980;28;19913;-58
2022/09/29 04:39:05;;;;;;;;;;;;;;;6.13;84.23;99960.50;5050538;28;19940;-59
2022/09/29 04:41:33;;;;;;;;;;;;;;;6.11;84.34;99963.31;5051813;28;20292;-59
2022/09/29 04:43:59;;;;;;;;;;;;;;;6.07;84.21;99967.25;5048418;28;19924;-59
2022/09/29 04:46:24;;;;;;;;;;;;;;;6.06;84.13;99967.38;5051299;28;19913;-58
2022/09/29 04:48:49;;;;;;;;;;;;;;;6.04;84.22;99964.91;5047608;28;19963;-59
2022/09/29 04:51:14;;;;;;;;;;;;;;;6.03;84.62;99973.00;5046078;28;19917;-58
2022/09/29 04:53:39;;;;;;;;;;;;;;;6.02;84.33;99969.53;5049712;28;19921;-59
2022/09/29 04:56:06;;;;;;;;;;;;;;;6.00;84.57;99971.50;5054747;28;19921;-59
2022/09/29 04:58:31;;;;;;;;;;;;;;;5.99;84.59;99976.94;5052191;28;19990;-59
2022/09/29 05:01:03;;;;;;;;;;;;;;;5.96;84.33;99978.09;5050163;28;19920;-57
2022/09/29 05:03:28;;;;;;;;;;;;;;;5.93;84.32;99981.06;5046691;28;20399;-58
2022/09/29 05:05:53;;;;;;;;;;;;;;;5.92;84.42;99978.59;5047862;28;19944;-59
2022/09/29 05:08:19;;;;;;;;;;;;;;;5.91;84.43;99983.03;5040883;28;19923;-58
2022/09/29 05:10:46;;;;;;;;;;;;;;;5.90;84.45;99981.38;5049232;28;19921;-58
2022/09/29 05:13:11;;;;;;;;;;;;;;;5.90;84.57;99984.03;5047263;28;19913;-59
2022/09/29 05:15:37;;;;;;;;;;;;;;;5.89;84.65;99988.47;5046955;28;19943;-58
2022/09/29 05:18:02;;;;;;;;;;;;;;;5.91;84.59;99988.31;5048489;28;20386;-59
2022/09/29 05:20:27;;;;;;;;;;;;;;;5.92;84.65;99987.31;5046602;28;19921;-58
2022/09/29 05:22:52;;;;;;;;;;;;;;;5.93;84.77;99996.88;5049510;28;20392;-58
2022/09/29 05:25:17;;;;;;;;;;;;;;;5.95;84.76;99996.72;5048869;28;19916;-58
2022/09/29 05:27:43;;;;;;;;;;;;;;;5.93;84.78;99996.03;5051046;28;19917;-58
2022/09/29 05:30:08;;;;;;;;;;;;;;;5.89;84.57;99999.00;5044183;28;19971;-59
2022/09/29 05:32:33;;;;;;;;;;;;;;;5.87;84.57;100000.13;5048736;28;19996;-58
2022/09/29 05:34:59;;;;;;;;;;;;;;;5.82;84.86;100008.50;5043304;28;19917;-59
2022/09/29 05:37:24;;;;;;;;;;;;;;;5.82;84.77;100012.97;5051544;28;20062;-58
2022/09/29 05:39:50;;;;;;;;;;;;;;;5.80;84.67;100007.03;5047582;28;20392;-58
2022/09/29 05:42:15;;;;;;;;;;;;;;;5.80;84.57;100017.56;5046965;28;19921;-58
2022/09/29 05:44:40;;;;;;;;;;;;;;;5.77;84.78;100016.03;5043799;28;19924;-59
2022/09/29 05:47:05;;;;;;;;;;;;;;;5.76;84.83;100019.66;5049236;28;19953;-58
2022/09/29 05:49:31;;;;;;;;;;;;;;;5.76;84.87;100024.94;5051821;28;20400;-58
2022/09/29 05:51:57;;;;;;;;;;;;;;;5.77;84.75;100023.94;5044384;28;19917;-58
2022/09/29 05:54:22;;;;;;;;;;;;;;;5.78;84.62;100025.63;5047671;28;19931;-58
2022/09/29 05:56:48;;;;;;;;;;;;;;;5.79;85.09;100024.63;5050030;28;19936;-58
2022/09/29 05:59:13;;;;;;;;;;;;;;;5.80;85.12;100028.94;5047369;28;19921;-57
2022/09/29 06:01:39;;;;;;;;;;;;;;;5.82;85.01;100032.22;5046069;28;19947;-59
2022/09/29 06:04:04;;;;;;;;;;;;;;;5.83;85.36;100036.50;5046896;28;20009;-58
2022/09/29 06:06:29;;;;;;;;;;;;;;;5.84;85.16;100032.88;5042141;28;20054;-58
2022/09/29 06:08:56;;;;;;;;;;;;;;;5.84;85.63;100024.97;5048048;28;19963;-58
2022/09/29 06:11:22;;;;;;;;;;;;;;;5.88;85.49;100030.75;5042368;28;19992;-58
2022/09/29 06:13:49;;;;;;;;;;;;;;;5.93;85.47;100033.75;5047713;28;19927;-58
2022/09/29 06:16:15;;;;;;;;;;;;;;;6.00;85.99;100036.56;5044353;28;19913;-58
2022/09/29 06:18:40;;;;;;;;;;;;;;;6.06;85.77;100036.75;5040675;28;19917;-59
2022/09/29 06:21:10;;;;;;;;;;;;;;;6.09;85.94;100033.81;5043383;28;19921;-58
2022/09/29 06:23:35;;;;;;;;;;;;;;;6.12;85.83;100044.03;5042735;28;19979;-58
2022/09/29 06:26:03;;;;;;;;;;;;;;;6.15;85.84;100045.53;5043355;28;19932;-58
2022/09/29 06:28:28;;;;;;;;;;;;;;;6.19;86.33;100049.47;5044621;28;19924;-58
2022/09/29 06:31:02;;;;;;;;;;;;;;;6.25;86.38;100054.09;5044377;28;19912;-59
2022/09/29 06:33:27;;;;;;;;;;;;;;;6.31;86.82;100053.44;5043231;28;19959;-58
2022/09/29 06:38:36;;;;;;;;;;;;;;;6.38;86.20;100054.47;5048165;28;19939;-58
2022/09/29 06:41:01;;;;;;;;;;;;;;;6.40;86.61;100054.31;5044644;28;20011;-59
2022/09/29 06:43:26;;;;;;;;;;;;;;;6.42;86.66;100063.69;5044289;28;19999;-58
2022/09/29 06:45:52;;;;;;;;;;;;;;;6.43;86.52;100060.06;5050473;28;20003;-58
2022/09/29 06:48:17;;;;;;;;;;;;;;;6.48;86.51;100064.84;5039838;28;20067;-58
2022/09/29 06:50:42;;;;;;;;;;;;;;;6.51;86.77;100072.44;5046612;28;19921;-58
2022/09/29 06:53:07;;;;;;;;;;;;;;;6.51;86.43;100078.53;5044009;28;19956;-58
2022/09/29 06:55:32;;;;;;;;;;;;;;;6.56;86.58;100075.41;5045999;28;19924;-58
2022/09/29 06:57:58;;;;;;;;;;;;;;;6.59;86.70;100080.34;5040429;28;19942;-58
2022/09/29 07:00:23;;;;;;;;;;;;;;;6.65;86.87;100078.88;5047850;28;19931;-58
2022/09/29 07:02:48;;;;;;;;;;;;;;;6.69;87.27;100078.41;5044930;28;19927;-58
2022/09/29 07:05:15;;;;;;;;;;;;;;;6.72;86.82;100082.53;5041465;28;19923;-58
2022/09/29 07:07:41;;;;;;;;;;;;;;;6.74;86.95;100080.53;5048625;28;19913;-58
2022/09/29 07:10:06;;;;;;;;;;;;;;;6.79;87.45;100088.78;5047681;28;19927;-59
2022/09/29 07:12:31;;;;;;;;;;;;;;;6.80;87.32;100087.78;5047145;28;19919;-58
2022/09/29 07:14:56;;;;;;;;;;;;;;;6.80;87.29;100093.06;5044045;28;19967;-58
2022/09/29 07:17:21;;;;;;;;;;;;;;;6.81;87.43;100094.72;5041313;28;19925;-59
2022/09/29 07:19:47;;;;;;;;;;;;;;;6.82;87.68;100093.72;5052262;28;19913;-58
2022/09/29 07:22:12;;;;;;;;;;;;;;;6.82;88.05;100101.66;5049431;28;20412;-58
2022/09/29 07:24:37;;;;;;;;;;;;;;;6.84;88.14;100103.13;5046719;28;19917;-58
2022/09/29 07:27:02;;;;;;;;;;;;;;;6.85;88.11;100098.69;5043150;28;19970;-58
2022/09/29 07:29:31;;;;;;;;;;;;;;;6.83;88.48;100103.28;5044957;28;19917;-59
2022/09/29 07:31:56;;;;;;;;;;;;;;;6.79;88.60;100100.16;5040370;28;19912;-58
2022/09/29 07:34:22;;;;;;;;;;;;;;;6.76;88.84;100097.84;5050954;28;19917;-58
2022/09/29 07:36:47;;;;;;;;;;;;;;;6.72;88.90;100096.53;5046189;28;19967;-59
2022/09/29 07:39:12;;;;;;;;;;;;;;;6.70;89.16;100095.88;5045181;28;19917;-58
2022/09/29 07:41:37;;;;;;;;;;;;;;;6.69;89.59;100102.16;5047058;28;19917;-58
2022/09/29 07:44:03;;;;;;;;;;;;;;;6.70;89.63;100105.59;5044709;28;19917;-58
2022/09/29 07:46:28;;;;;;;;;;;;;;;6.71;90.11;100107.25;5049899;28;19919;-59
2022/09/29 07:48:53;;;;;;;;;;;;;;;6.76;90.27;100110.22;5044370;28;20003;-59
2022/09/29 07:51:19;;;;;;;;;;;;;;;6.82;90.38;100109.56;5043307;28;19913;-58
2022/09/29 07:53:44;;;;;;;;;;;;;;;6.87;90.59;100111.72;5048011;28;20062;-58
2022/09/29 07:56:20;;;;;;;;;;;;;;;6.94;90.45;100120.59;5045005;28;19913;-59
2022/09/29 07:58:46;;;;;;;;;;;;;;;7.02;91.01;100124.09;5038526;28;19921;-58
2022/09/29 08:01:12;;;;;;;;;;;;;;;7.08;91.29;100130.53;5038061;28;19936;-58
2022/09/29 08:03:38;;;;;;;;;;;;;;;7.15;91.15;100128.88;5044993;28;19917;-58
2022/09/29 08:06:04;;;;;;;;;;;;;;;7.20;91.39;100125.72;5048542;28;20269;-59
2022/09/29 08:08:29;;;;;;;;;;;;;;;7.22;91.69;100129.00;5045352;28;19924;-59
2022/09/29 08:11:01;;;;;;;;;;;;;;;7.25;91.56;100134.00;5040950;28;19917;-59
2022/09/29 08:13:26;;;;;;;;;;;;;;;7.33;91.53;100142.72;5047682;28;20442;-59
2022/09/29 08:15:56;;;;;;;;;;;;;;;7.40;91.50;100146.34;5047724;28;19912;-58
2022/09/29 08:18:21;;;;;;;;;;;;;;;7.48;91.59;100142.84;5052061;28;19917;-59
2022/09/29 08:20:47;;;;;;;;;;;;;;;7.54;91.94;100142.22;5051711;28;20299;-58
2022/09/29 08:23:12;;;;;;;;;;;;;;;7.63;92.11;100145.66;5040646;28;19920;-58
2022/09/29 08:25:37;;;;;;;;;;;;;;;7.75;92.14;100153.03;5045225;28;19917;-58
2022/09/29 08:28:02;;;;;;;;;;;;;;;7.85;92.09;100152.06;5047506;28;20375;-58
2022/09/29 08:30:28;;;;;;;;;;;;;;;7.94;91.91;100153.66;5048122;28;19913;-58
2022/09/29 08:32:53;;;;;;;;;;;;;;;8.01;91.79;100160.75;5046242;28;19921;-59
2022/09/29 08:35:19;;;;;;;;;;;;;;;8.11;91.52;100162.38;5046874;28;20320;-58
2022/09/29 08:37:44;;;;;;;;;;;;;;;8.18;91.55;100163.34;5039157;28;19917;-59
2022/09/29 08:40:09;;;;;;;;;;;;;;;8.23;91.92;100159.16;5045952;28;20296;-59
2022/09/29 08:42:45;;;;;;;;;;;;;;;8.30;91.69;100173.34;5047855;28;20291;-58
2022/09/29 08:45:13;;;;;;;;;;;;;;;8.37;91.73;100166.41;5048276;28;19914;-59
2022/09/29 08:47:42;;;;;;;;;;;;;;;8.49;91.70;100168.69;5044257;28;19924;-58
2022/09/29 08:50:15;;;;;;;;;;;;;;;8.62;91.71;100168.91;5046475;28;20324;-58
2022/09/29 08:52:42;;;;;;;;;;;;;;;8.73;91.70;100168.53;5040212;28;19916;-57
2022/09/29 08:55:11;;;;;;;;;;;;;;;8.81;92.28;100160.53;5046741;28;19912;-57
2022/09/29 08:57:36;;;;;;;;;;;;;;;8.97;92.18;100176.34;5049331;28;19920;-58
2022/09/29 09:00:01;;;;;;;;;;;;;;;9.09;91.68;100178.56;5043977;28;19927;-59
2022/09/29 09:02:38;;;;;;;;;;;;;;;9.20;91.61;100180.78;5047914;28;19943;-58
2022/09/29 09:05:20;;;;;;;;;;;;;;;9.30;91.73;100176.06;5040121;28;20304;-58
2022/09/29 09:07:51;;;;;;;;;;;;;;;9.44;91.64;100179.75;5054361;28;19937;-57
2022/09/29 09:10:25;;;;;;;;;;;;;;;9.60;91.58;100184.91;5050174;28;19929;-58
2022/09/29 09:12:54;;;;;;;;;;;;;;;9.72;91.17;100186.13;5045471;28;20402;-58
2022/09/29 09:15:36;;;;;;;;;;;;;;;9.82;90.92;100189.31;5039797;28;20498;-59
2022/09/29 09:18:01;;;;;;;;;;;;;;;10.03;90.66;100182.47;5046925;28;19920;-58
2022/09/29 09:20:35;;;;;;;;;;;;;;;10.18;90.72;100183.31;5045152;28;19924;-58
2022/09/29 09:23:20;;;;;;;;;;;;;;;10.36;90.26;100189.06;5054592;28;19967;-59
2022/09/29 09:26:06;;;;;;;;;;;;;;;10.42;89.76;100195.50;5045459;28;19916;-59
2022/09/29 09:28:31;;;;;;;;;;;;;;;10.50;89.04;100190.06;5044254;28;19956;-59
2022/09/29 09:30:59;;;;;;;;;;;;;;;10.54;89.08;100188.69;5051395;28;19955;-58
2022/09/29 09:33:35;;;;;;;;;;;;;;;10.67;89.12;100183.50;5047499;28;19917;-59
2022/09/29 09:36:04;;;;;;;;;;;;;;;10.81;88.38;100187.97;5049591;28;19912;-58
2022/09/29 09:38:39;;;;;;;;;;;;;;;10.97;88.37;100194.03;5048479;28;20369;-59
2022/09/29 09:41:06;;;;;;;;;;;;;;;11.07;87.99;100191.91;5038482;28;20296;-58
2022/09/29 09:44:04;;;;;;;;;;;;;;;11.13;87.83;100191.97;5047133;28;19920;-59
2022/09/29 09:46:38;;;;;;;;;;;;;;;11.29;87.51;100190.09;5008277;28;19912;-59
2022/09/29 09:49:17;;;;;;;;;;;;;;;11.44;87.47;100194.31;5048504;28;19927;-59
2022/09/29 09:51:45;;;;;;;;;;;;;;;11.57;87.11;100198.09;5041450;28;19952;-59
2022/09/29 09:54:14;;;;;;;;;;;;;;;11.64;86.38;100198.97;5051726;28;20992;-59
2022/09/29 09:56:45;;;;;;;;;;;;;;;11.69;85.99;100200.03;5047346;28;19921;-59
2022/09/29 09:59:30;;;;;;;;;;;;;;;11.77;84.83;100201.72;5051532;28;19923;-59
2022/09/29 10:01:55;;;;;;;;;;;;;;;11.88;83.74;100206.53;5045639;28;19921;-58
2022/09/29 10:04:22;;;;;;;;;;;;;;;12.00;83.61;100206.81;5047150;28;19967;-59
2022/09/29 10:06:47;;;;;;;;;;;;;;;12.07;83.41;100210.31;5050758;28;19920;-58
2022/09/29 10:09:13;;;;;;;;;;;;;;;12.10;83.02;100210.75;5049715;28;19917;-58
2022/09/29 10:11:40;;;;;;;;;;;;;;;12.15;82.25;100215.53;5046297;28;19955;-58
2022/09/29 10:14:11;;;;;;;;;;;;;;;12.22;81.28;100210.22;5049564;28;20443;-58
2022/09/29 10:16:49;;;;;;;;;;;;;;;12.22;80.50;100218.22;5045453;28;20450;-58
2022/09/29 10:19:19;;;;;;;;;;;;;;;12.27;80.62;100210.44;5050542;28;20032;-58
2022/09/29 10:21:44;;;;;;;;;;;;;;;12.27;80.57;100213.94;5043084;28;19917;-59
2022/09/29 10:24:42;;;;;;;;;;;;;;;12.27;80.41;100215.78;5037363;28;20351;-58
2022/09/29 10:27:09;;;;;;;;;;;;;;;12.31;79.91;100211.69;5012569;28;20011;-59
2022/09/29 10:29:41;;;;;;;;;;;;;;;12.29;79.22;100222.53;5046432;28;20353;-59
2022/09/29 10:32:15;;;;;;;;;;;;;;;12.29;79.20;100219.88;5046421;28;19962;-59
2022/09/29 10:34:42;;;;;;;;;;;;;;;12.37;79.36;100219.72;5045770;28;20055;-58
2022/09/29 10:37:13;;;;;;;;;;;;;;;12.44;79.05;100227.75;5045169;28;20358;-59
2022/09/29 10:39:41;;;;;;;;;;;;;;;12.49;79.41;100225.31;5050439;28;19919;-59
2022/09/29 10:42:20;;;;;;;;;;;;;;;12.52;78.60;100230.25;5040174;28;19931;-59
2022/09/29 10:44:50;;;;;;;;;;;;;;;12.51;78.31;100228.59;5047885;28;19916;-59
2022/09/29 10:47:15;;;;;;;;;;;;;;;12.51;78.81;100235.78;5038826;28;19927;-60
2022/09/29 10:49:40;;;;;;;;;;;;;;;12.54;78.97;100227.38;5046178;28;20003;-60
2022/09/29 10:52:15;;;;;;;;;;;;;;;12.58;78.73;100228.63;5045486;28;20052;-60
2022/09/29 10:54:52;;;;;;;;;;;;;;;12.59;78.50;100223.09;5046376;28;20404;-60
2022/09/29 10:57:22;;;;;;;;;;;;;;;12.61;78.41;100231.72;5047274;28;20000;-60
2022/09/29 10:59:48;;;;;;;;;;;;;;;12.69;78.94;100228.88;5044372;28;19940;-59
2022/09/29 11:02:25;;;;;;;;;;;;;;;12.77;78.87;100227.88;5041608;28;19924;-60
2022/09/29 11:04:51;;;;;;;;;;;;;;;12.87;77.98;100232.81;5038611;28;20636;-60
2022/09/29 11:07:16;;;;;;;;;;;;;;;12.97;78.21;100226.09;5040873;28;20313;-59
2022/09/29 11:09:44;;;;;;;;;;;;;;;13.09;77.58;100229.00;5047404;28;19917;-60
2022/09/29 11:12:27;;;;;;;;;;;;;;;13.20;77.58;100228.44;5045789;28;20011;-60
2022/09/29 11:14:53;;;;;;;;;;;;;;;13.36;77.75;100231.75;5047330;28;20426;-60
2022/09/29 11:17:23;;;;;;;;;;;;;;;13.55;77.56;100230.91;5044401;28;19917;-60
2022/09/29 11:19:49;;;;;;;;;;;;;;;13.72;77.91;100221.50;5045245;28;19916;-60
2022/09/29 11:22:33;;;;;;;;;;;;;;;13.91;77.36;100235.84;5043868;28;19924;-60
2022/09/29 11:24:58;;;;;;;;;;;;;;;14.10;77.17;100226.16;5045664;28;19976;-60
2022/09/29 11:27:37;;;;;;;;;;;;;;;14.27;77.04;100235.38;5041360;28;20055;-60
2022/09/29 11:30:08;;;;;;;;;;;;;;;14.43;76.27;100229.59;5042460;28;19921;-60
2022/09/29 11:32:57;;;;;;;;;;;;;;;14.58;76.72;100232.03;5040067;28;19920;-60
2022/09/29 11:35:22;;;;;;;;;;;;;;;14.74;76.29;100233.38;5041106;28;19917;-60
2022/09/29 11:37:54;;;;;;;;;;;;;;;14.79;74.32;100238.94;5043530;28;19913;-60
2022/09/29 11:40:21;;;;;;;;;;;;;;;14.77;71.81;100232.97;5045703;28;19924;-60
2022/09/29 11:42:49;;;;;;;;;;;;;;;14.80;71.26;100235.22;5046606;28;19924;-60
2022/09/29 11:45:18;;;;;;;;;;;;;;;14.79;70.41;100237.09;5041316;28;20385;-60
2022/09/29 11:48:04;;;;;;;;;;;;;;;14.75;70.76;100241.22;5045154;28;19913;-60
2022/09/29 11:50:29;;;;;;;;;;;;;;;14.78;70.12;100237.28;5036603;28;19924;-59
2022/09/29 11:52:59;;;;;;;;;;;;;;;14.79;68.70;100247.78;5044156;28;19970;-60
2022/09/29 11:55:28;;;;;;;;;;;;;;;14.75;67.81;100241.22;5043415;28;19932;-60
2022/09/29 11:58:01;;;;;;;;;;;;;;;14.75;66.83;100240.41;5042556;28;20047;-59
2022/09/29 12:00:49;;;;;;;;;;;;;;;14.81;66.92;100248.38;5036680;28;19921;-60
2022/09/29 12:03:18;;;;;;;;;;;;;;;14.92;65.15;100248.72;5040001;28;20446;-60
2022/09/29 12:05:48;;;;;;;;;;;;;;;14.90;64.96;100245.47;5051152;28;20007;-60
2022/09/29 12:08:22;;;;;;;;;;;;;;;14.94;65.59;100252.81;5046190;28;19999;-60
2022/09/29 12:11:05;;;;;;;;;;;;;;;14.98;64.48;100254.03;5048867;28;19916;-60
2022/09/29 12:13:31;;;;;;;;;;;;;;;14.96;64.39;100249.94;5044553;28;20012;-60
2022/09/29 12:16:02;;;;;;;;;;;;;;;15.00;63.19;100248.47;5043840;28;20375;-59
2022/09/29 12:18:35;;;;;;;;;;;;;;;15.09;63.84;100249.88;5034877;28;20328;-60
2022/09/29 12:21:02;;;;;;;;;;;;;;;15.22;64.82;100248.97;5046610;28;19916;-60
2022/09/29 12:23:29;;;;;;;;;;;;;;;15.33;65.27;100254.47;5039329;28;19924;-60
2022/09/29 12:25:54;;;;;;;;;;;;;;;15.39;64.39;100253.59;5044667;28;19917;-59
2022/09/29 12:28:22;;;;;;;;;;;;;;;15.37;63.64;100249.50;5040797;28;19940;-60
2022/09/29 12:31:02;;;;;;;;;;;;;;;15.41;63.08;100250.72;5051947;28;19916;-60
2022/09/29 12:33:33;;;;;;;;;;;;;;;15.38;63.71;100253.81;5046449;28;19917;-60
2022/09/29 12:35:58;;;;;;;;;;;;;;;15.45;63.91;100254.59;5051708;28;20160;-60
2022/09/29 12:38:35;;;;;;;;;;;;;;;15.47;62.76;100253.34;5047546;28;19991;-60
2022/09/29 12:41:03;;;;;;;;;;;;;;;15.50;62.89;100252.09;5046553;28;19913;-60
2022/09/29 12:43:34;;;;;;;;;;;;;;;15.55;61.74;100244.22;5049986;28;19931;-59
2022/09/29 12:46:05;;;;;;;;;;;;;;;15.59;62.84;100242.78;5046007;28;19912;-60
2022/09/29 12:48:30;;;;;;;;;;;;;;;15.70;63.62;100246.63;5046644;28;19917;-60
2022/09/29 12:51:01;;;;;;;;;;;;;;;15.79;62.70;100258.69;5055569;28;19970;-60
2022/09/29 12:53:38;;;;;;;;;;;;;;;15.80;61.13;100246.94;5043051;28;20000;-60
2022/09/29 12:56:04;;;;;;;;;;;;;;;15.90;61.15;100241.06;5050427;28;19979;-60
2022/09/29 12:58:52;;;;;;;;;;;;;;;15.94;60.25;100248.47;5048527;28;19917;-60